Gaylord, MI (49735)

8:28 PM EST on February 23, 2017 (GMT -0500)
Castlewood Drive | | Change Station
Active Advisory: Winter Weather Advisory

Elev 1315 ft 44.99 °N, 84.66 °W | Updated 1 minute ago

Scattered Clouds
Scattered Clouds
31.8 °F
Feels Like 32 °F
N
0.0
Wind Variable Wind from NE
Gusts 0.0 mph

Today
High -- | Low -- °F
--% Chance of Precip.
Yesterday
High -- | Low -- °F
Precip. -- in
Pressure 29.93 in
Visibility 10.0 miles
Clouds Few 2200 ft
Scattered Clouds 11000 ft
Windchill 32 °F
Dew Point 28 °F
Humidity 87%
Rainfall 0.00 in
Snow Depth Not available.
7:26 AM 6:18 PM
Waning Crescent, 7% visible
METAR KGLR 240053Z AUTO 00000KT 10SM FEW022 SCT110 01/M03 A2989 RMK AO2 SLP133 T00111033
Pressure 29.93 in
Visibility 10.0 miles
Clouds Few 2200 ft
Scattered Clouds 11000 ft
Windchill 32 °F
Dew Point 28 °F
Humidity 87%
Rainfall 0.00 in
Snow Depth Not available.
7:26 AM 6:18 PM
Waning Crescent, 7% visible
METAR KGLR 240053Z AUTO 00000KT 10SM FEW022 SCT110 01/M03 A2989 RMK AO2 SLP133 T00111033

Get Your Daily Forecast Email!

Thanks for signing up!

Be on the lookout for a verification email in your inbox.

You'll start receiving the daily forecast at 8 AM.

×

10-Day Weather Forecast

Almanac

Astronomy

Feb. 23, 2017 Rise Set
Actual Time
Civil Twilight
Nautical Twilight
Astronomical Twilight
Moon
Length of Visible Light
Length of Day
Tomorrow will be .
, % of the Moon is Illuminated

Today's Extremes

State Highs State Lows

Community

WunderPhotos

Upload Photos

1,962,540 photos uploaded!

WunderBlog® & News

Nearby

Air Quality

  Air Quality AQ Index Pollutant
Not available.

Snow Depth

Station Depth Elevation

Earthquake Activity

City Distance Mag. Time & Date
Minimum magnitude displayed is 2.5.

Coastal Water Temperatures

Place Temperature

Stations

Nearby Weather Stations

Station Location Temp. Windchill Dew Point Humidity Wind Precip. Elev Updated Type
                   

Watches & Warnings

Winter Weather Advisory
Issued: 3:05 PM EST Feb. 23, 2017 – National Weather Service

... Winter Weather Advisory remains in effect from 11 PM this
evening to 1 am EST Saturday...

* expect a wintry mix to develop after midnight tonight and then
diminish after midnight Saturday.

* The heaviest snowfall rates will occur between 7 am and 1 PM
Friday... and the greatest amount of ice accumulation will
occur between 7 PM Friday and 1 am Saturday.

* Total snow accumulations of 1 to 3 inches and ice
accumulations of 1/10 to 1/4 of an inch are expected.

* Look for reduced visibilities at times.

* Power outages and tree damage are possible due to the ice.
Travel will be dangerous and nearly impossible.

Precautionary/preparedness actions...

A Winter Weather Advisory means that periods of snow... sleet or
freezing rain will cause travel difficulties. Be prepared for
slippery roads and limited visibilities... and use caution while
driving. For the latest Road conditions... go to the mdot website
at Michigan.Gov.